McChord Air Force Base
KTCM : now visible

Airfield :











YOU CAN JOIN US ON...

 
LOGIN :

Register | Disclaimer

   EN    FR    IT 

 









Legend :    VFR   Marginal VFR   IFR   Intensive IFR   Very Intensive IFR
Visi :
Ceiling :
>= 8 km
>= 3000ft
5 to 8 km
1000 to 3000 ft
1500m to 5 km
500 to 1000 ft
800 to 1500m
200 to 500 ft
< 800m
< 200 ft
Symbols :   Thunderstorms  Fog  Heavy snow  Heavy precipitations  Wind > 20 kt






- Airport Elevation : 322 ft


KTCM - McChord Air Force Base

CURRENT METAR :
  • 080703Z 00000KT 1/2SM R16/2600V2800FT FG VV000 08/08 A2985 RMK AO2A SLP113 $

EXPIRED METARs :
  • 080658Z 00000KT 1/2SM R16/2600V3500FT FG VV001 08/08 A2985 RMK AO2A SLP113 $
  • 080638Z 00000KT 7/8SM R16/4500VP6000FT BR VV001 08/08 A2984 RMK AO2A CIG 001V003 SLP110 $
  • 080608Z AUTO 32003KT 5/8SM R16/2600V5500FT BR BKN003 07/ A2982 RMK AO2 CIG 001V003 CIG 002 RWY34 SLP103 $
  • 080557Z 32003KT 3/4SM R16/4000V5500FT BR BKN001 07/07 A2982 RMK BKN V SCT SLP103 $
  • 080513Z AUTO 17004KT 3/8SM R16/1600V2800FT FG SCT040 07/ A2980 RMK AO2 SLP096 $
  • 080458Z AUTO 17003KT 1/2SM R16/2200V3500FT FG FEW016 OVC040 08/ A2980 RMK AO2 SLP096 $
  • 080433Z AUTO 00000KT 5/8SM R16/3500V4000FT BR SCT016 OVC038 08/ A2980 RMK AO2 SLP096 $

TAF AMD TAF KTCM
Valid from the 08 at 06:00 until the 09 at 11:00 UTC


080600Z 0806/0911 VRB06KT 4800 BR SCT015 OVC035 620509 QNH2978INS
TEMPO 0806/0811 0800 FG VV002
BECMG 0810/0811 VRB06KT 8000 BR BKN005 OVC015 620509 QNH2986INS
BECMG 0817/0818 VRB06KT 9999 NSW BKN010 OVC020 QNH3008INS
TEMPO 0818/0823 BKN005
BECMG 0823/0824 VRB06KT 9000 BR SCT010 BKN020 QNH3016INS
TEMPO 0900/0905 BKN010 BKN020
BECMG 0907/0908 VRB06KT 6000 BR BKN015 QNH3024INS TX09/0823Z TN06/0905Z



MET'MAP, your aeronautical weather chart ! - Copyright ORBIFLY December 2007 - Disclaimer

ORBIFLY MET'MAP TEAM :

Programming & Development : Alexandra Zaïnal
Concept & original design : Baudouin d'Aumeries
Assistance for programming : Marc-Olivier Méhu
Technical & hardware support : Manuel Goepfert

Contact : metmap@orbifly.com




SOURCES & CREDITS :

   NOAA       Earth
Advisory